createdAt,value
2016-11-01T00:00:22.156Z,8.76
2016-11-01T00:01:21.823Z,8.77
2016-11-01T00:02:22.084Z,8.79
2016-11-01T00:03:21.744Z,8.8
2016-11-01T00:04:22.009Z,8.76
2016-11-01T00:05:21.967Z,8.66
2016-11-01T00:06:21.927Z,8.8
2016-11-01T00:07:21.892Z,8.73
2016-11-01T00:08:21.860Z,8.77
2016-11-01T00:09:21.819Z,8.74
2016-11-01T00:10:21.478Z,8.7
2016-11-01T00:11:21.739Z,8.73
2016-11-01T00:12:21.404Z,8.7
2016-11-01T00:13:21.360Z,8.62
2016-11-01T00:14:21.652Z,8.68
2016-11-01T00:15:21.617Z,8.66
2016-11-01T00:16:21.553Z,8.71
2016-11-01T00:17:20.911Z,8.65
2016-11-01T00:18:21.476Z,8.62
2016-11-01T00:19:20.836Z,8.74
2016-11-01T00:20:21.401Z,8.73
2016-11-01T00:21:21.360Z,8.66
2016-11-01T00:22:21.018Z,8.73
2016-11-01T00:23:21.286Z,8.73
2016-11-01T00:24:21.248Z,8.66
2016-11-01T00:25:21.211Z,8.61
2016-11-01T00:26:20.871Z,8.7
2016-11-01T00:27:21.132Z,8.63
2016-11-01T00:28:20.796Z,8.63
2016-11-01T00:29:21.064Z,8.7
2016-11-01T00:30:21.020Z,8.65
2016-11-01T00:31:20.977Z,8.63
2016-11-01T00:32:20.642Z,8.61
2016-11-01T00:33:20.599Z,8.59
2016-11-01T00:34:20.563Z,8.66
2016-11-01T00:35:20.527Z,8.65
2016-11-01T00:36:20.790Z,8.71
2016-11-01T00:37:20.755Z,8.63
2016-11-01T00:38:20.414Z,8.65
2016-11-01T00:39:20.677Z,8.62
2016-11-01T00:40:20.342Z,8.65
2016-11-01T00:41:20.609Z,8.61
2016-11-01T00:42:20.568Z,8.76
2016-11-01T00:43:20.523Z,8.73
2016-11-01T00:44:20.185Z,8.71
2016-11-01T00:45:20.454Z,8.76
2016-11-01T00:46:20.416Z,8.63
2016-11-01T00:47:20.386Z,8.71
2016-11-01T00:48:20.342Z,8.65
2016-11-01T00:49:20.299Z,8.65
2016-11-01T00:50:19.963Z,8.74
2016-11-01T00:51:19.928Z,8.7
2016-11-01T00:52:20.184Z,8.66
2016-11-01T00:53:19.849Z,8.73
2016-11-01T00:54:19.838Z,8.65
2016-11-01T00:55:19.777Z,8.71
2016-11-01T00:56:20.029Z,8.65
2016-11-01T00:57:20.003Z,8.7
2016-11-01T00:58:19.956Z,8.79
2016-11-01T00:59:19.918Z,8.65
2016-11-01T01:00:19.581Z,8.65
2016-11-01T01:01:19.539Z,8.66
2016-11-01T01:02:19.505Z,8.71
2016-11-01T01:03:19.467Z,8.73
2016-11-01T01:04:19.124Z,8.65
2016-11-01T01:05:19.694Z,8.73
2016-11-01T01:06:19.652Z,8.76
2016-11-01T01:07:19.310Z,8.71
2016-11-01T01:08:19.588Z,8.73
2016-11-01T01:09:19.540Z,8.73
2016-11-01T01:10:19.559Z,8.7
2016-11-01T01:11:19.465Z,8.73
2016-11-01T01:12:19.425Z,8.73
2016-11-01T01:13:19.085Z,8.63
2016-11-01T01:14:19.349Z,8.61
2016-11-01T01:15:19.012Z,8.65
2016-11-01T01:16:19.280Z,8.73
2016-11-01T01:17:18.929Z,8.73
2016-11-01T01:18:19.199Z,8.63
2016-11-01T01:19:18.855Z,8.76
2016-11-01T01:20:18.829Z,8.73
2016-11-01T01:21:19.127Z,8.71
2016-11-01T01:22:18.439Z,8.7
2016-11-01T01:23:19.007Z,8.73
2016-11-01T01:24:18.665Z,8.66
2016-11-01T01:25:18.933Z,8.73
2016-11-01T01:26:18.889Z,8.73
2016-11-01T01:27:18.550Z,8.76
2016-11-01T01:28:18.817Z,8.7
2016-11-01T01:29:18.781Z,8.71
2016-11-01T01:30:18.742Z,8.66
2016-11-01T01:31:18.706Z,8.74
2016-11-01T01:32:18.669Z,8.62
2016-11-01T01:33:18.624Z,8.73
2016-11-01T01:34:18.590Z,8.76
2016-11-01T01:35:18.548Z,8.79
2016-11-01T01:36:18.211Z,8.71
2016-11-01T01:37:18.180Z,8.71
2016-11-01T01:38:18.480Z,8.71
2016-11-01T01:39:18.096Z,8.76
2016-11-01T01:40:18.358Z,8.7
2016-11-01T01:41:18.320Z,8.66
2016-11-01T01:42:17.990Z,8.65
2016-11-01T01:43:18.249Z,8.65
2016-11-01T01:44:18.212Z,8.71
2016-11-01T01:45:17.895Z,8.73
2016-11-01T01:46:18.141Z,8.71
2016-11-01T01:47:18.094Z,8.63
2016-11-01T01:48:17.759Z,8.7
2016-11-01T01:49:17.718Z,8.76
2016-11-01T01:50:17.980Z,8.71
2016-11-01T01:51:17.641Z,8.71
2016-11-01T01:52:17.610Z,8.61
2016-11-01T01:53:17.909Z,8.65
2016-11-01T01:54:17.529Z,8.76
2016-11-01T01:55:17.489Z,8.68
2016-11-01T01:56:17.763Z,8.73
2016-11-01T01:57:17.414Z,8.7
2016-11-01T01:58:17.690Z,8.68
2016-11-01T01:59:17.336Z,8.73
2016-11-01T02:00:17.606Z,8.76
2016-11-01T02:01:17.258Z,8.7
2016-11-01T02:02:17.228Z,8.71
2016-11-01T02:03:17.487Z,8.73
2016-11-01T02:04:17.150Z,8.7
2016-11-01T02:05:17.408Z,8.65
2016-11-01T02:06:17.079Z,8.73
2016-11-01T02:07:17.336Z,8.79
2016-11-01T02:08:17.297Z,8.62
2016-11-01T02:09:17.265Z,8.66
2016-11-01T02:10:17.225Z,8.73
2016-11-01T02:11:17.186Z,8.73
2016-11-01T02:12:16.848Z,8.61
2016-11-01T02:13:17.109Z,8.66
2016-11-01T02:14:17.071Z,8.74
2016-11-01T02:15:17.069Z,8.61
2016-11-01T02:16:17.000Z,8.66
2016-11-01T02:17:16.965Z,8.74
2016-11-01T02:18:16.620Z,8.7
2016-11-01T02:19:16.581Z,8.59
2016-11-01T02:20:16.534Z,8.65
2016-11-01T02:21:16.501Z,8.62
2016-11-01T02:22:16.460Z,8.71
2016-11-01T02:23:16.426Z,8.71
2016-11-01T02:24:16.391Z,8.65
2016-11-01T02:25:16.655Z,8.66
2016-11-01T02:26:16.614Z,8.68
2016-11-01T02:27:16.570Z,8.65
2016-11-01T02:28:16.535Z,8.63
2016-11-01T02:29:16.500Z,8.66
2016-11-01T02:30:16.460Z,8.68
2016-11-01T02:31:16.426Z,8.62
2016-11-01T02:32:16.385Z,8.55
2016-11-01T02:33:16.354Z,8.62
2016-11-01T02:34:16.313Z,8.66
2016-11-01T02:35:15.969Z,8.71
2016-11-01T02:36:16.232Z,8.71
2016-11-01T02:37:15.890Z,8.68
2016-11-01T02:38:15.853Z,8.59
2016-11-01T02:39:15.820Z,8.65
2016-11-01T02:40:16.122Z,8.66
2016-11-01T02:41:16.040Z,8.66
2016-11-01T02:42:16.006Z,8.62
2016-11-01T02:43:15.964Z,8.66
2016-11-01T02:44:15.929Z,8.61
2016-11-01T02:45:15.889Z,8.56
2016-11-01T02:46:15.548Z,8.68
2016-11-01T02:47:15.535Z,8.63
2016-11-01T02:48:15.778Z,8.62
2016-11-01T02:49:15.745Z,8.68
2016-11-01T02:50:15.699Z,8.63
2016-11-01T02:51:15.665Z,8.61
2016-11-01T02:52:15.623Z,8.58
2016-11-01T02:53:15.586Z,8.63
2016-11-01T02:54:15.570Z,8.63
2016-11-01T02:55:15.513Z,8.62
2016-11-01T02:56:15.474Z,8.65
2016-11-01T02:57:15.431Z,8.62
2016-11-01T02:58:15.394Z,8.62
2016-11-01T02:59:15.060Z,8.61
2016-11-01T03:00:15.321Z,8.65
2016-11-01T03:01:15.281Z,8.65
2016-11-01T03:02:15.246Z,8.62
2016-11-01T03:03:14.602Z,8.55
2016-11-01T03:04:15.175Z,8.63
2016-11-01T03:05:15.135Z,8.59
2016-11-01T03:06:15.090Z,8.59
2016-11-01T03:07:15.052Z,8.58
2016-11-01T03:08:15.015Z,8.59
2016-11-01T03:09:14.976Z,8.59
2016-11-01T03:10:14.635Z,8.55
2016-11-01T03:11:14.899Z,8.56
2016-11-01T03:12:14.862Z,8.55
2016-11-01T03:13:14.823Z,8.5
2016-11-01T03:14:14.786Z,8.59
2016-11-01T03:15:14.791Z,8.56
2016-11-01T03:16:14.707Z,8.55
2016-11-01T03:17:14.670Z,8.52
2016-11-01T03:18:14.331Z,8.58
2016-11-01T03:19:14.594Z,8.58
2016-11-01T03:20:14.254Z,8.53
2016-11-01T03:21:14.519Z,8.48
2016-11-01T03:22:14.488Z,8.48
2016-11-01T03:23:14.454Z,8.48
2016-11-01T03:24:14.101Z,8.55
2016-11-01T03:25:14.371Z,8.53
2016-11-01T03:26:14.327Z,8.53
2016-11-01T03:27:14.293Z,8.45
2016-11-01T03:28:14.251Z,8.41
2016-11-01T03:29:14.212Z,8.47
2016-11-01T03:30:14.176Z,8.48
2016-11-01T03:31:14.137Z,8.53
2016-11-01T03:32:14.097Z,8.47
2016-11-01T03:33:14.060Z,8.41
2016-11-01T03:34:14.021Z,8.44
2016-11-01T03:35:13.982Z,8.41
2016-11-01T03:36:13.942Z,8.47
2016-11-01T03:37:13.619Z,8.41
2016-11-01T03:38:13.871Z,8.55
2016-11-01T03:39:13.838Z,8.45
2016-11-01T03:40:13.791Z,8.41
2016-11-01T03:41:13.762Z,8.44
2016-11-01T03:42:13.722Z,8.43
2016-11-01T03:43:13.679Z,8.45
2016-11-01T03:44:13.644Z,8.45
2016-11-01T03:45:13.604Z,8.41
2016-11-01T03:46:13.565Z,8.44
2016-11-01T03:47:13.526Z,8.45
2016-11-01T03:48:13.482Z,8.44
2016-11-01T03:49:13.450Z,8.38
2016-11-01T03:50:13.411Z,8.48
2016-11-01T03:51:13.376Z,8.44
2016-11-01T03:52:13.332Z,8.53
2016-11-01T03:53:13.297Z,8.44
2016-11-01T03:54:13.256Z,8.43
2016-11-01T03:55:13.222Z,8.4
2016-11-01T03:56:13.179Z,8.43
2016-11-01T03:57:13.140Z,8.44
2016-11-01T03:58:13.103Z,8.43
2016-11-01T03:59:13.068Z,8.38
2016-11-01T04:00:13.028Z,8.43
2016-11-01T04:01:12.993Z,8.43
2016-11-01T04:02:12.353Z,8.41
2016-11-01T04:03:12.913Z,8.33
2016-11-01T04:04:12.876Z,8.33
2016-11-01T04:05:12.838Z,8.3
2016-11-01T04:06:12.800Z,8.37
2016-11-01T04:07:12.166Z,8.26
2016-11-01T04:08:12.729Z,8.38
2016-11-01T04:09:12.692Z,8.4
2016-11-01T04:10:12.653Z,8.36
2016-11-01T04:11:12.618Z,8.36
2016-11-01T04:12:12.270Z,8.3
2016-11-01T04:13:12.534Z,8.33
2016-11-01T04:14:12.495Z,8.4
2016-11-01T04:15:12.457Z,8.37
2016-11-01T04:16:12.115Z,8.36
2016-11-01T04:17:12.377Z,8.37
2016-11-01T04:18:12.340Z,8.36
2016-11-01T04:19:12.299Z,8.36
2016-11-01T04:20:12.262Z,8.3
2016-11-01T04:21:12.227Z,8.36
2016-11-01T04:22:12.187Z,8.33
2016-11-01T04:23:12.151Z,8.29
2016-11-01T04:24:12.115Z,8.36
2016-11-01T04:25:12.068Z,8.37
2016-11-01T04:26:11.731Z,8.36
2016-11-01T04:27:11.997Z,8.36
2016-11-01T04:28:11.963Z,8.36
2016-11-01T04:29:11.922Z,8.26
2016-11-01T04:30:11.881Z,8.3
2016-11-01T04:31:11.846Z,8.23
2016-11-01T04:32:11.802Z,8.3
2016-11-01T04:33:11.765Z,8.26
2016-11-01T04:34:11.729Z,8.29
2016-11-01T04:35:11.690Z,8.2
2016-11-01T04:36:11.354Z,8.33
2016-11-01T04:37:11.611Z,8.26
2016-11-01T04:38:11.270Z,8.29
2016-11-01T04:39:11.235Z,8.3
2016-11-01T04:40:11.495Z,8.33
2016-11-01T04:41:11.167Z,8.26
2016-11-01T04:42:11.420Z,8.29
2016-11-01T04:43:11.392Z,8.19
2016-11-01T04:44:11.347Z,8.34
2016-11-01T04:45:11.346Z,8.3
2016-11-01T04:46:11.267Z,8.26
2016-11-01T04:47:11.229Z,8.23
2016-11-01T04:48:11.193Z,8.18
2016-11-01T04:49:11.153Z,8.3
2016-11-01T04:50:11.115Z,8.19
2016-11-01T04:51:11.077Z,8.18
2016-11-01T04:52:11.038Z,8.18
2016-11-01T04:53:11.007Z,8.18
2016-11-01T04:54:10.663Z,8.2
2016-11-01T04:55:10.927Z,8.19
2016-11-01T04:56:10.883Z,8.22
2016-11-01T04:57:10.848Z,8.19
2016-11-01T04:58:10.807Z,8.2
2016-11-01T04:59:10.778Z,8.2
2016-11-01T05:00:10.433Z,8.23
2016-11-01T05:01:10.696Z,8.2
2016-11-01T05:02:10.655Z,8.2
2016-11-01T05:03:10.615Z,8.23
2016-11-01T05:04:10.275Z,8.2
2016-11-01T05:05:10.537Z,8.18
2016-11-01T05:06:10.537Z,8.25
2016-11-01T05:07:10.471Z,8.18
2016-11-01T05:08:10.427Z,8.15
2016-11-01T05:09:10.391Z,8.2
2016-11-01T05:10:10.044Z,8.19
2016-11-01T05:11:10.308Z,8.2
2016-11-01T05:12:10.276Z,8.18
2016-11-01T05:13:10.236Z,8.23
2016-11-01T05:14:09.911Z,8.2
2016-11-01T05:15:10.168Z,8.2
2016-11-01T05:16:10.123Z,8.2
2016-11-01T05:17:10.080Z,8.2
2016-11-01T05:18:10.041Z,8.19
2016-11-01T05:19:10.005Z,8.22
2016-11-01T05:20:09.968Z,8.18
2016-11-01T05:21:09.623Z,8.29
2016-11-01T05:22:09.886Z,8.26
2016-11-01T05:23:09.847Z,8.26
2016-11-01T05:24:09.819Z,8.19
2016-11-01T05:25:09.469Z,8.16
2016-11-01T05:26:09.730Z,8.25
2016-11-01T05:27:09.697Z,8.22
2016-11-01T05:28:09.358Z,8.18
2016-11-01T05:29:09.617Z,8.2
2016-11-01T05:30:09.580Z,8.25
2016-11-01T05:31:09.576Z,8.2
2016-11-01T05:32:09.203Z,8.23
2016-11-01T05:33:09.467Z,8.22
2016-11-01T05:34:09.427Z,8.23
2016-11-01T05:35:09.088Z,8.22
2016-11-01T05:36:09.049Z,8.23
2016-11-01T05:37:09.010Z,8.26
2016-11-01T05:38:08.669Z,8.25
2016-11-01T05:39:09.243Z,8.26
2016-11-01T05:40:08.890Z,8.22
2016-11-01T05:41:08.864Z,8.16
2016-11-01T05:42:08.820Z,8.2
2016-11-01T05:43:08.497Z,8.22
2016-11-01T05:44:09.041Z,8.16
2016-11-01T05:45:09.008Z,8.2
2016-11-01T05:46:08.361Z,8.2
2016-11-01T05:47:08.933Z,8.18
2016-11-01T05:48:08.587Z,8.22
2016-11-01T05:49:08.849Z,8.2
2016-11-01T05:50:08.808Z,8.25
2016-11-01T05:51:08.777Z,8.19
2016-11-01T05:52:08.732Z,8.25
2016-11-01T05:53:08.691Z,8.22
2016-11-01T05:54:08.354Z,8.22
2016-11-01T05:55:08.613Z,8.23
2016-11-01T05:56:08.579Z,8.23
2016-11-01T05:57:08.547Z,8.2
2016-11-01T05:58:08.501Z,8.19
2016-11-01T05:59:08.463Z,8.22
2016-11-01T06:00:08.123Z,8.19
2016-11-01T06:01:08.386Z,8.18
2016-11-01T06:02:08.044Z,8.19
2016-11-01T06:03:08.310Z,8.16
2016-11-01T06:04:08.271Z,8.18
2016-11-01T06:05:08.231Z,8.19
2016-11-01T06:06:08.196Z,8.19
2016-11-01T06:07:07.855Z,8.18
2016-11-01T06:08:08.116Z,8.18
2016-11-01T06:09:08.077Z,8.12
2016-11-01T06:10:07.738Z,8.2
2016-11-01T06:11:07.701Z,8.2
2016-11-01T06:12:07.966Z,8.2
2016-11-01T06:13:07.622Z,8.19
2016-11-01T06:14:07.884Z,8.19
2016-11-01T06:15:07.540Z,8.2
2016-11-01T06:16:07.808Z,8.18
2016-11-01T06:17:07.474Z,8.19
2016-11-01T06:18:07.731Z,8.18
2016-11-01T06:19:07.707Z,8.23
2016-11-01T06:20:07.445Z,8.2
2016-11-01T06:21:07.009Z,8.19
2016-11-01T06:22:07.281Z,8.2
2016-11-01T06:23:07.238Z,8.19
2016-11-01T06:24:07.498Z,8.25
2016-11-01T06:25:07.456Z,8.22
2016-11-01T06:26:07.116Z,8.2
2016-11-01T06:27:07.381Z,8.15
2016-11-01T06:28:07.039Z,8.19
2016-11-01T06:29:07.304Z,8.23
2016-11-01T06:30:06.965Z,8.2
2016-11-01T06:31:07.224Z,8.18
2016-11-01T06:32:07.187Z,8.19
2016-11-01T06:33:07.152Z,8.22
2016-11-01T06:34:07.113Z,8.22
2016-11-01T06:35:06.471Z,8.18
2016-11-01T06:36:06.732Z,8.16
2016-11-01T06:37:06.997Z,8.25
2016-11-01T06:38:06.964Z,8.2
2016-11-01T06:39:06.920Z,8.19
2016-11-01T06:40:06.574Z,8.23
2016-11-01T06:41:06.839Z,8.23
2016-11-01T06:42:06.502Z,8.19
2016-11-01T06:43:06.804Z,8.18
2016-11-01T06:44:06.419Z,8.23
2016-11-01T06:45:06.695Z,8.26
2016-11-01T06:46:06.691Z,8.26
2016-11-01T06:47:06.315Z,8.19
2016-11-01T06:48:06.568Z,8.19
2016-11-01T06:49:06.233Z,8.28
2016-11-01T06:50:05.888Z,8.26
2016-11-01T06:51:06.154Z,8.25
2016-11-01T06:52:06.416Z,8.22
2016-11-01T06:53:06.376Z,8.19
2016-11-01T06:54:06.341Z,8.19
2016-11-01T06:55:06.298Z,8.2
2016-11-01T06:56:06.262Z,8.2
2016-11-01T06:57:06.223Z,8.22
2016-11-01T06:58:06.188Z,8.22
2016-11-01T06:59:06.160Z,8.28
2016-11-01T07:00:06.105Z,8.3
2016-11-01T07:01:05.766Z,8.37
2016-11-01T07:02:06.031Z,8.33
2016-11-01T07:03:05.993Z,8.28
2016-11-01T07:04:05.650Z,8.3
2016-11-01T07:05:05.912Z,8.34
2016-11-01T07:06:05.916Z,8.38
2016-11-01T07:07:05.571Z,8.37
2016-11-01T07:08:05.800Z,8.34
2016-11-01T07:09:05.760Z,8.29
2016-11-01T07:10:05.722Z,8.3
2016-11-01T07:11:05.384Z,8.34
2016-11-01T07:12:05.643Z,8.38
2016-11-01T07:13:05.615Z,8.29
2016-11-01T07:14:05.271Z,8.37
2016-11-01T07:15:05.532Z,8.43
2016-11-01T07:16:05.494Z,8.43
2016-11-01T07:17:05.188Z,8.43
2016-11-01T07:18:05.421Z,8.45
2016-11-01T07:19:05.381Z,8.41
2016-11-01T07:20:05.338Z,8.44
2016-11-01T07:21:05.312Z,8.47
2016-11-01T07:22:05.264Z,8.52
2016-11-01T07:23:05.227Z,8.47
2016-11-01T07:24:05.187Z,8.52
2016-11-01T07:25:04.848Z,8.43
2016-11-01T07:26:05.109Z,8.38
2016-11-01T07:27:05.074Z,8.4
2016-11-01T07:28:05.039Z,8.55
2016-11-01T07:29:05.000Z,8.43
2016-11-01T07:30:04.964Z,8.48
2016-11-01T07:31:04.317Z,8.48
2016-11-01T07:32:04.581Z,8.53
2016-11-01T07:33:04.846Z,8.53
2016-11-01T07:34:04.208Z,8.55
2016-11-01T07:35:04.765Z,8.61
2016-11-01T07:36:04.427Z,8.56
2016-11-01T07:37:04.693Z,8.65
2016-11-01T07:38:04.662Z,8.58
2016-11-01T07:39:04.618Z,8.65
2016-11-01T07:40:04.586Z,8.62
2016-11-01T07:41:04.541Z,8.63
2016-11-01T07:42:04.503Z,8.61
2016-11-01T07:43:04.465Z,8.71
2016-11-01T07:44:04.426Z,8.71
2016-11-01T07:45:04.090Z,8.66
2016-11-01T07:46:04.050Z,8.74
2016-11-01T07:47:04.313Z,8.8
2016-11-01T07:48:03.975Z,8.74
2016-11-01T07:49:04.240Z,8.86
2016-11-01T07:50:04.199Z,8.83
2016-11-01T07:51:03.862Z,8.84
2016-11-01T07:52:03.825Z,8.8
2016-11-01T07:53:03.790Z,8.84
2016-11-01T07:54:03.801Z,8.92
2016-11-01T07:55:04.014Z,8.94
2016-11-01T07:56:03.676Z,8.87
2016-11-01T07:57:03.941Z,8.98
2016-11-01T07:58:03.900Z,8.98
2016-11-01T07:59:03.863Z,8.95
2016-11-01T08:00:03.523Z,9.01
2016-11-01T08:01:03.788Z,9.05
2016-11-01T08:02:03.447Z,9.02
2016-11-01T08:03:03.710Z,9.18
2016-11-01T08:04:03.674Z,9.15
2016-11-01T08:05:03.634Z,9.1
2016-11-01T08:06:03.295Z,9.18
2016-11-01T08:07:03.260Z,9.29
2016-11-01T08:08:03.227Z,9.21
2016-11-01T08:09:03.484Z,9.31
2016-11-01T08:10:03.450Z,9.31
2016-11-01T08:11:03.417Z,9.46
2016-11-01T08:12:03.381Z,9.4
2016-11-01T08:13:03.041Z,9.48
2016-11-01T08:14:03.298Z,9.5
2016-11-01T08:15:02.958Z,9.53
2016-11-01T08:16:02.929Z,9.54
2016-11-01T08:17:03.191Z,9.61
2016-11-01T08:18:03.148Z,9.54
2016-11-01T08:19:02.813Z,9.5
2016-11-01T08:20:03.078Z,9.43
2016-11-01T08:21:03.052Z,9.46
2016-11-01T08:22:03.017Z,9.29
2016-11-01T08:23:02.664Z,9.31
2016-11-01T08:24:02.625Z,9.21
2016-11-01T08:25:02.293Z,9.26
2016-11-01T08:26:02.853Z,9.21
2016-11-01T08:27:02.816Z,9.2
2016-11-01T08:28:02.777Z,9.15
2016-11-01T08:29:02.738Z,9.02
2016-11-01T08:30:02.699Z,9.05
2016-11-01T08:31:02.366Z,9.04
2016-11-01T08:32:02.325Z,9.04
2016-11-01T08:33:02.594Z,9.04
2016-11-01T08:34:02.559Z,8.99
2016-11-01T08:35:02.518Z,9.01
2016-11-01T08:36:02.173Z,8.99
2016-11-01T08:37:01.844Z,8.96
2016-11-01T08:38:02.411Z,9.08
2016-11-01T08:39:02.061Z,9.11
2016-11-01T08:40:02.332Z,9.13
2016-11-01T08:41:02.294Z,9.24
2016-11-01T08:42:02.255Z,9.32
2016-11-01T08:43:02.216Z,9.35
2016-11-01T08:44:02.184Z,9.43
2016-11-01T08:45:01.843Z,9.4
2016-11-01T08:46:01.802Z,9.48
2016-11-01T08:47:02.067Z,9.58
2016-11-01T08:48:01.736Z,9.53
2016-11-01T08:49:01.999Z,9.56
2016-11-01T08:50:01.656Z,9.65
2016-11-01T08:51:01.615Z,9.65
2016-11-01T08:52:01.283Z,9.79
2016-11-01T08:53:01.845Z,9.81
2016-11-01T08:54:01.505Z,9.81
2016-11-01T08:55:01.773Z,9.81
2016-11-01T08:56:01.433Z,9.79
2016-11-01T08:57:01.391Z,9.86
2016-11-01T08:58:01.655Z,9.9
2016-11-01T08:59:01.619Z,9.87
2016-11-01T09:00:01.581Z,9.86
2016-11-01T09:01:01.548Z,9.79
2016-11-01T09:02:01.209Z,9.87
2016-11-01T09:03:01.171Z,9.91
2016-11-01T09:04:01.173Z,9.86
2016-11-01T09:05:01.394Z,9.84
2016-11-01T09:06:01.056Z,9.86
2016-11-01T09:07:01.022Z,9.83
2016-11-01T09:08:01.283Z,9.89
2016-11-01T09:09:00.644Z,9.9
2016-11-01T09:10:00.909Z,10.04
2016-11-01T09:11:01.180Z,9.96
2016-11-01T09:12:01.133Z,9.93
2016-11-01T09:13:01.104Z,9.97
2016-11-01T09:14:00.757Z,10.01
2016-11-01T09:15:01.026Z,10.04
2016-11-01T09:16:00.990Z,10.09
2016-11-01T09:17:00.955Z,10.15
2016-11-01T09:18:00.911Z,10.15
2016-11-01T09:19:00.272Z,10.15
2016-11-01T09:20:00.838Z,10.29
2016-11-01T09:21:00.804Z,10.36
2016-11-01T09:22:00.467Z,10.34
2016-11-01T09:23:00.730Z,10.48
2016-11-01T09:24:00.695Z,10.56
2016-11-01T09:25:00.660Z,10.73
2016-11-01T09:26:00.619Z,10.91
2016-11-01T09:27:00.589Z,11.02
2016-11-01T09:28:00.245Z,11.15
2016-11-01T09:29:00.206Z,11.24
2016-11-01T09:29:59.910Z,11.28
2016-11-01T09:31:00.437Z,11.37
2016-11-01T09:32:00.103Z,11.4
2016-11-01T09:33:00.365Z,11.49
2016-11-01T09:34:00.328Z,11.52
2016-11-01T09:35:00.294Z,11.57
2016-11-01T09:35:59.954Z,11.64
2016-11-01T09:36:59.618Z,11.61
2016-11-01T09:37:59.884Z,11.62
2016-11-01T09:39:00.149Z,11.65
2016-11-01T09:40:00.115Z,11.67
2016-11-01T09:40:59.474Z,11.72
2016-11-01T09:42:00.039Z,11.65
2016-11-01T09:43:00.002Z,11.6
2016-11-01T09:44:00.030Z,11.67
2016-11-01T09:44:59.931Z,11.62
2016-11-01T09:45:59.898Z,11.67
2016-11-01T09:46:59.555Z,11.75
2016-11-01T09:47:59.221Z,11.72
2016-11-01T09:48:59.488Z,11.85
2016-11-01T09:49:59.449Z,11.85
2016-11-01T09:50:59.719Z,11.99
2016-11-01T09:51:59.077Z,12.1
2016-11-01T09:52:59.660Z,12.07
2016-11-01T09:53:59.613Z,12.14
2016-11-01T09:54:59.273Z,12.29
2016-11-01T09:55:59.233Z,12.28
2016-11-01T09:56:59.201Z,12.42
2016-11-01T09:57:59.164Z,12.41
2016-11-01T09:58:59.431Z,12.42
2016-11-01T09:59:59.398Z,12.49
2016-11-01T10:00:58.758Z,12.47
2016-11-01T10:01:59.025Z,12.56
2016-11-01T10:02:59.305Z,12.77
2016-11-01T10:03:58.959Z,12.93
2016-11-01T10:04:58.918Z,13.19
2016-11-01T10:05:58.880Z,13.39
2016-11-01T10:06:59.150Z,13.7
2016-11-01T10:07:58.815Z,14.4
2016-11-01T10:08:59.080Z,15.43
2016-11-01T10:09:58.444Z,16.46
2016-11-01T10:10:58.714Z,17.46
2016-11-01T10:11:58.978Z,18.2
2016-11-01T10:12:58.960Z,18.3
2016-11-01T10:13:58.617Z,18.18
2016-11-01T10:14:58.880Z,18.14
2016-11-01T10:15:58.603Z,18.42
2016-11-01T10:16:58.831Z,18.33
2016-11-01T10:17:58.785Z,18.15
2016-11-01T10:18:58.754Z,18.11
2016-11-01T10:19:58.721Z,18.41
2016-11-01T10:20:58.703Z,19.04
2016-11-01T10:21:58.358Z,19.62
2016-11-01T10:22:58.633Z,19.92
2016-11-01T10:23:58.599Z,19.87
2016-11-01T10:24:58.570Z,19.74
2016-11-01T10:25:58.541Z,19.58
2016-11-01T10:26:58.504Z,19.62
2016-11-01T10:27:58.478Z,19.73
2016-11-01T10:28:58.142Z,19.91
2016-11-01T10:29:58.115Z,20.23
2016-11-01T10:30:58.084Z,20.62
2016-11-01T10:31:58.360Z,20.64
2016-11-01T10:32:58.333Z,20.87
2016-11-01T10:33:57.991Z,21.03
2016-11-01T10:34:57.663Z,21.17
2016-11-01T10:35:57.936Z,21.31
2016-11-01T10:36:58.216Z,21.1
2016-11-01T10:37:58.181Z,21.01
2016-11-01T10:38:57.853Z,21.01
2016-11-01T10:39:58.124Z,21.37
2016-11-01T10:40:58.133Z,21.84
2016-11-01T10:41:57.768Z,22.09
2016-11-01T10:42:58.043Z,22.14
2016-11-01T10:43:57.709Z,22.17
2016-11-01T10:44:57.683Z,22
2016-11-01T10:45:57.959Z,22.03
2016-11-01T10:46:57.628Z,22
2016-11-01T10:47:57.907Z,22.18
2016-11-01T10:48:57.877Z,22.18
2016-11-01T10:49:57.550Z,22.2
2016-11-01T10:50:57.519Z,22.27
2016-11-01T10:51:57.791Z,22.49
2016-11-01T10:52:57.169Z,22.86
2016-11-01T10:53:57.443Z,23.19
2016-11-01T10:54:57.418Z,23.31
2016-11-01T10:55:57.386Z,23.17
2016-11-01T10:56:57.662Z,22.76
2016-11-01T10:57:57.634Z,22.31
2016-11-01T10:58:57.608Z,21.96
2016-11-01T10:59:57.586Z,21.67
2016-11-01T11:00:57.552Z,21.62
2016-11-01T11:01:57.224Z,21.47
2016-11-01T11:02:57.505Z,21.59
2016-11-01T11:03:57.182Z,21.96
2016-11-01T11:04:57.150Z,22.21
2016-11-01T11:05:57.421Z,22.02
2016-11-01T11:06:57.391Z,21.83
2016-11-01T11:07:57.368Z,21.72
2016-11-01T11:08:57.055Z,21.61
2016-11-01T11:09:57.013Z,21.68
2016-11-01T11:10:56.980Z,21.74
2016-11-01T11:11:56.654Z,21.69
2016-11-01T11:12:56.969Z,21.49
2016-11-01T11:13:57.203Z,21.32
2016-11-01T11:14:56.575Z,21.14
2016-11-01T11:15:57.197Z,21.19
2016-11-01T11:16:57.125Z,21.17
2016-11-01T11:17:57.107Z,21.06
2016-11-01T11:18:57.064Z,20.95
2016-11-01T11:19:56.735Z,20.7
2016-11-01T11:20:57.009Z,20.52
2016-11-01T11:21:56.980Z,20.33
2016-11-01T11:22:56.959Z,20.06
2016-11-01T11:23:56.659Z,19.92
2016-11-01T11:24:56.904Z,19.63
2016-11-01T11:25:56.883Z,19.43
2016-11-01T11:26:56.542Z,19.06
2016-11-01T11:27:56.857Z,18.9
2016-11-01T11:28:56.784Z,18.69
2016-11-01T11:29:56.753Z,18.39
2016-11-01T11:30:56.722Z,18.21
2016-11-01T11:31:56.602Z,18
2016-11-01T11:32:56.369Z,17.84
2016-11-01T11:33:56.638Z,17.66
2016-11-01T11:34:56.616Z,17.56
2016-11-01T11:35:56.578Z,17.51
2016-11-01T11:36:56.241Z,17.31
2016-11-01T11:37:56.518Z,17.34
2016-11-01T11:38:56.484Z,17.18
2016-11-01T11:39:56.455Z,17
2016-11-01T11:40:56.434Z,16.83
2016-11-01T11:41:56.400Z,16.73
2016-11-01T11:42:56.363Z,16.73
2016-11-01T11:43:56.031Z,16.6
2016-11-01T11:44:56.003Z,16.58
2016-11-01T11:45:56.271Z,16.6
2016-11-01T11:46:55.938Z,16.42
2016-11-01T11:47:56.211Z,16.39
2016-11-01T11:48:56.177Z,16.27
2016-11-01T11:49:55.880Z,15.97
2016-11-01T11:50:55.816Z,16.01
2016-11-01T11:51:55.788Z,15.89
2016-11-01T11:52:56.051Z,15.87
2016-11-01T11:53:56.018Z,15.78
2016-11-01T11:54:55.988Z,15.86
2016-11-01T11:55:55.958Z,15.76
2016-11-01T11:56:55.624Z,15.72
2016-11-01T11:57:55.902Z,15.65
2016-11-01T11:58:55.858Z,15.62
2016-11-01T11:59:55.523Z,15.64
2016-11-01T12:00:55.793Z,15.59
2016-11-01T12:01:55.764Z,15.49
2016-11-01T12:02:55.731Z,15.35
2016-11-01T12:03:55.702Z,15.2
2016-11-01T12:04:55.672Z,14.98
2016-11-01T12:05:55.671Z,14.65
2016-11-01T12:06:55.596Z,14.61
2016-11-01T12:07:55.261Z,14.58
2016-11-01T12:08:55.232Z,14.5
2016-11-01T12:09:55.538Z,14.42
2016-11-01T12:10:55.482Z,14.25
2016-11-01T12:11:55.430Z,14.14
2016-11-01T12:12:55.407Z,13.96
2016-11-01T12:13:55.063Z,13.97
2016-11-01T12:14:55.032Z,13.88
2016-11-01T12:15:54.997Z,13.69
2016-11-01T12:16:54.965Z,13.62
2016-11-01T12:17:55.239Z,13.57
2016-11-01T12:18:55.205Z,13.55
2016-11-01T12:19:54.863Z,13.45
2016-11-01T12:20:54.833Z,13.41
2016-11-01T12:21:55.102Z,13.17
2016-11-01T12:22:54.761Z,13.05
2016-11-01T12:23:55.038Z,13.04
2016-11-01T12:24:54.995Z,12.92
2016-11-01T12:25:54.657Z,12.86
2016-11-01T12:26:54.925Z,12.79
2016-11-01T12:27:54.891Z,12.68
2016-11-01T12:28:54.901Z,12.67
2016-11-01T12:29:54.828Z,12.53
2016-11-01T12:30:54.793Z,12.46
2016-11-01T12:31:54.456Z,12.41
2016-11-01T12:32:54.419Z,12.37
2016-11-01T12:33:54.687Z,12.14
2016-11-01T12:34:54.362Z,12.07
2016-11-01T12:35:54.312Z,12.13
2016-11-01T12:36:54.583Z,12.01
2016-11-01T12:37:53.941Z,11.96
2016-11-01T12:38:53.909Z,11.96
2016-11-01T12:39:54.479Z,11.86
2016-11-01T12:40:54.453Z,11.99
2016-11-01T12:41:54.404Z,12.01
2016-11-01T12:42:54.080Z,12.01
2016-11-01T12:43:54.341Z,12.01
2016-11-01T12:44:54.299Z,12.02
2016-11-01T12:45:54.269Z,12.05
2016-11-01T12:46:54.240Z,12.04
2016-11-01T12:47:53.899Z,11.95
2016-11-01T12:48:54.163Z,12.07
2016-11-01T12:49:54.131Z,11.94
2016-11-01T12:50:54.099Z,12.01
2016-11-01T12:51:53.757Z,11.98
2016-11-01T12:52:54.021Z,11.91
2016-11-01T12:53:53.995Z,11.9
2016-11-01T12:54:53.646Z,11.91
2016-11-01T12:55:53.915Z,11.96
2016-11-01T12:56:53.887Z,11.99
2016-11-01T12:57:53.241Z,12.01
2016-11-01T12:58:53.511Z,11.94
2016-11-01T12:59:53.777Z,11.94
2016-11-01T13:00:53.742Z,11.86
2016-11-01T13:01:53.704Z,11.8
2016-11-01T13:02:53.666Z,11.73
2016-11-01T13:03:53.641Z,11.73
2016-11-01T13:04:53.595Z,11.69
2016-11-01T13:05:53.564Z,11.65
2016-11-01T13:06:53.562Z,11.67
2016-11-01T13:07:53.236Z,11.65
2016-11-01T13:08:53.452Z,11.65
2016-11-01T13:09:53.121Z,11.73
2016-11-01T13:10:53.388Z,11.79
2016-11-01T13:11:53.054Z,11.83
2016-11-01T13:12:53.008Z,11.73